createdAt,value
2023-03-23T15:58:54.888Z,45.94
2023-03-23T16:02:50.165Z,46.33
2023-03-23T16:06:44.656Z,46.08
2023-03-23T16:10:37.744Z,46.41
2023-03-23T16:14:30.763Z,46.56
2023-03-23T16:18:23.736Z,46.99
2023-03-23T16:22:17.222Z,46.60
2023-03-23T16:26:11.552Z,46.97
2023-03-23T16:30:19.189Z,46.88
2023-03-23T16:34:12.056Z,47.23
2023-03-23T16:38:08.501Z,47.15
2023-03-23T16:42:01.702Z,47.36
2023-03-23T16:45:57.632Z,47.50
2023-03-23T16:49:51.847Z,47.92
2023-03-23T16:53:44.622Z,48.56
2023-03-23T16:57:38.494Z,48.70
2023-03-23T17:01:31.250Z,48.70
2023-03-23T17:05:29.473Z,48.76
2023-03-23T17:09:22.509Z,48.90
2023-03-23T17:13:15.781Z,49.18
2023-03-23T17:17:12.026Z,49.31
2023-03-23T17:21:04.819Z,49.31
2023-03-23T17:24:58.913Z,49.72
2023-03-23T17:28:51.728Z,49.47
2023-03-23T17:32:44.878Z,49.66
2023-03-23T17:36:37.965Z,49.71
2023-03-23T17:40:31.633Z,49.35
2023-03-23T17:44:26.012Z,50.05
2023-03-23T17:48:20.383Z,50.17
2023-03-23T17:52:14.512Z,49.83
2023-03-23T17:56:09.848Z,50.10
2023-03-23T18:00:05.546Z,51.06
2023-03-23T18:03:58.805Z,50.70
2023-03-23T18:07:53.372Z,51.27
2023-03-23T18:11:47.312Z,51.23
2023-03-23T18:15:46.729Z,50.96
2023-03-23T18:19:41.061Z,50.68
2023-03-23T18:23:43.102Z,50.87
2023-03-23T18:27:45.215Z,51.19
2023-03-23T18:31:40.548Z,50.35
2023-03-23T18:35:34.353Z,50.48
2023-03-23T18:39:28.323Z,50.61
2023-03-23T18:43:21.759Z,50.50
2023-03-23T18:47:15.365Z,50.34
2023-03-23T18:51:09.821Z,50.28
2023-03-23T18:55:03.858Z,50.28
2023-03-23T18:58:58.436Z,50.18
2023-03-23T19:02:52.751Z,50.05
2023-03-23T19:06:46.948Z,50.38
2023-03-23T19:10:43.075Z,50.30
2023-03-23T19:14:38.365Z,50.60
2023-03-23T19:18:31.317Z,50.67
2023-03-23T19:22:25.078Z,50.73
2023-03-23T19:26:32.594Z,50.68
2023-03-23T19:30:28.195Z,50.88
2023-03-23T19:34:22.467Z,51.24
2023-03-23T19:38:17.671Z,51.55
2023-03-23T19:42:14.673Z,51.46
2023-03-23T19:46:08.711Z,51.53
2023-03-23T19:50:02.279Z,51.60
2023-03-23T19:53:59.376Z,51.97
2023-03-23T19:57:53.359Z,51.80
2023-03-23T20:01:47.594Z,52.50
2023-03-23T20:05:42.253Z,52.59
2023-03-23T20:09:38.150Z,52.62
2023-03-23T20:13:35.536Z,52.69
2023-03-23T20:17:29.899Z,52.88
2023-03-23T20:21:26.078Z,53.11
2023-03-23T20:25:20.295Z,53.16
2023-03-23T20:29:14.161Z,53.36
2023-03-23T20:33:09.155Z,53.86
2023-03-23T20:37:03.724Z,53.97
2023-03-23T20:40:58.239Z,54.04
2023-03-23T20:44:53.235Z,54.24
2023-03-23T20:48:50.195Z,54.20
2023-03-23T20:52:45.676Z,54.35
2023-03-23T20:56:41.163Z,54.22
2023-03-23T21:00:34.867Z,54.26
2023-03-23T21:04:29.154Z,54.64
2023-03-23T21:08:22.599Z,54.55
2023-03-23T21:12:15.855Z,54.50
2023-03-23T21:16:09.432Z,54.59
2023-03-23T21:20:08.113Z,54.03
2023-03-23T21:24:01.442Z,53.88
2023-03-23T21:27:54.310Z,54.77
2023-03-23T21:31:48.592Z,53.99
2023-03-23T21:35:45.246Z,54.45
2023-03-23T21:39:38.308Z,54.49
2023-03-23T21:43:31.018Z,54.81
2023-03-23T21:47:24.341Z,55.13
2023-03-23T21:51:23.268Z,55.60
2023-03-23T21:55:16.832Z,54.81
2023-03-23T21:59:09.482Z,54.51
2023-03-23T22:03:04.604Z,54.44
2023-03-23T22:06:57.587Z,54.03
2023-03-23T22:11:00.938Z,53.75
2023-03-23T22:14:54.297Z,53.58
2023-03-23T22:18:48.775Z,53.72
2023-03-23T22:23:07.434Z,53.60
2023-03-23T22:27:02.792Z,53.92
2023-03-23T22:31:00.344Z,53.75
2023-03-23T22:34:53.742Z,53.61
2023-03-23T22:38:48.006Z,54.28
2023-03-23T22:42:40.900Z,54.29
2023-03-23T22:46:33.756Z,54.51
2023-03-23T22:50:27.823Z,55.34
2023-03-23T22:54:20.837Z,55.31
2023-03-23T22:58:14.696Z,55.38
2023-03-23T23:02:07.378Z,55.45
2023-03-23T23:06:01.449Z,56.06
2023-03-23T23:09:54.234Z,56.33
2023-03-23T23:13:47.962Z,57.58
2023-03-23T23:17:41.472Z,57.84
2023-03-23T23:21:35.739Z,57.89
2023-03-23T23:25:29.656Z,58.21
2023-03-23T23:29:22.499Z,57.91
2023-03-23T23:33:15.329Z,58.82
2023-03-23T23:37:09.305Z,60.33
2023-03-23T23:41:02.110Z,61.30
2023-03-23T23:44:55.066Z,61.74
2023-03-23T23:48:47.779Z,62.63
2023-03-23T23:52:40.903Z,62.90
2023-03-23T23:56:33.792Z,62.80
